REU weather

Reus Air Base
Reus, Catalonia, Spain

Public forecast

Using degrees Celsius for public forecast. Weather courtesy of forecast.io.

Current aviation weather report (METAR) for Reus Air Base

Retrieved 2020/07/04 11:00 UTC (6 minutes ago):

LERS 041100Z 26003KT 190V340 CAVOK 27/09 Q1021

Aviation forecast (TAF) for Reus Air Base

Retrieved 2020/07/04 09:27 UTC (2 hours ago):

TAF LERS 040800Z 0409/0509 27008KT 9999 FEW040 TX32/0413Z TN19/0505Z BECMG 0418/0420 VRB04KT